Brandy Bar — WDF7323 — position and weather

sailwx.info

Track history (hours):
 
Tides and Currents Weather Stations Pressure Air Temp Water Temp Dewpoint Dewpoint Depression Visibility Wind Speed Wind Dir Waves Ship Positions

Brandy Bar

Owner: Brandy Bar, Tiburon, CA. More information available from US FCC via Universal Licensing System and Coast Guard Vessel Documentation Center.

Last reported at 2016-Sep-30 16:18 UTC. Time now 2016-Sep-30 18:37 UTC.
Position N 38°05' W 122°15'.

Type: Towing. MMSI: 367483310.

Date/timePositionNaut miles runAvg speedWind from/ knotsBaromVisibWave heightAir tempDewpointWater temp
2016-Sep-30 16:18N 38°05' W 122°15'18 6.3
2016-Sep-30 13:26N 38°03' W 121°52'2 0.1
2016-Sep-29 23:12N 38°03' W 121°50'0 0.2
2016-Sep-29 21:33N 38°03' W 121°50'0 0.0
2016-Sep-29 20:33N 38°03' W 121°50'2 1.6
2016-Sep-29 19:33N 38°02' W 121°50'0 0.0
2016-Sep-29 16:33N 38°02' W 121°51'0 0.0
2016-Sep-29 15:33N 38°02' W 121°51'0 0.0
2016-Sep-29 14:33N 38°02' W 121°51'0 0.0
2016-Sep-29 13:30N 38°02' W 121°51'0 0.0
2016-Sep-29 08:33N 38°02' W 121°51'0 0.0
2016-Sep-29 07:33N 38°02' W 121°51'0 0.0
2016-Sep-29 00:33N 38°02' W 121°51'2 0.4
2016-Sep-28 19:16N 38°03' W 121°50'16 5.9
2016-Sep-28 16:32N 38°03' W 122°11'5 4.2
2016-Sep-28 15:23N 38°06' W 122°16'1 0.0
2016-Sep-27 14:23N 38°06' W 122°16'0 0.0
2016-Sep-27 13:16N 38°06' W 122°16'0 0.0
2016-Sep-27 10:30N 38°06' W 122°16'0 0.0
2016-Sep-27 00:33N 38°06' W 122°16'0 0.0
2016-Sep-26 15:33N 38°06' W 122°16'0 0.0
2016-Sep-26 13:18N 38°06' W 122°16'0 0.0
2016-Sep-26 11:33N 38°06' W 122°16'0 0.0
2016-Sep-26 08:33N 38°06' W 122°16'0 0.0
2016-Sep-26 02:33N 38°06' W 122°16'0 0.0
2016-Sep-26 01:33N 38°06' W 122°16'0 0.0
2016-Sep-26 00:33N 38°06' W 122°16'0 0.0
2016-Sep-25 21:30N 38°06' W 122°16'0 0.0
2016-Sep-25 15:33N 38°06' W 122°16'0 0.0
2016-Sep-25 14:33N 38°06' W 122°16'0 0.0
2016-Sep-25 12:33N 38°06' W 122°16'0 0.0
2016-Sep-25 11:33N 38°06' W 122°16'0 0.0
2016-Sep-25 10:33N 38°06' W 122°16'0 0.0
2016-Sep-25 09:33N 38°06' W 122°16'0 0.0
2016-Sep-25 07:31N 38°06' W 122°16'0 0.0
2016-Sep-25 04:33N 38°06' W 122°16'0 0.0
2016-Sep-25 00:33N 38°06' W 122°16'0 0.0
2016-Sep-24 22:33N 38°06' W 122°16'0 0.0
2016-Sep-24 21:33N 38°06' W 122°16'0 0.0
2016-Sep-24 19:33N 38°06' W 122°16'0 0.0
2016-Sep-24 18:33N 38°06' W 122°16'0 0.0
2016-Sep-24 17:31N 38°06' W 122°16'0 0.0
2016-Sep-24 16:33N 38°06' W 122°16'0 0.0
2016-Sep-24 12:33N 38°06' W 122°16'0 0.0
2016-Sep-24 10:33N 38°06' W 122°16'0 0.0
2016-Sep-24 09:33N 38°06' W 122°16'0 0.0
2016-Sep-24 03:33N 38°06' W 122°16'0 0.0
2016-Sep-24 02:33N 38°06' W 122°16'0 0.0
2016-Sep-24 01:33N 38°06' W 122°16'0 0.0
2016-Sep-24 00:33N 38°06' W 122°16'0 0.0
2016-Sep-23 19:17N 38°06' W 122°16'0 0.0
2016-Sep-23 17:17N 38°06' W 122°16'0 0.0
2016-Sep-23 16:32N 38°06' W 122°16'0 0.0
2016-Sep-23 15:33N 38°06' W 122°16'0 0.0
2016-Sep-23 13:32N 38°06' W 122°16'0 0.0
2016-Sep-23 09:31N 38°06' W 122°16'0 0.0
2016-Sep-23 04:32N 38°06' W 122°16'0 0.0
2016-Sep-23 03:33N 38°06' W 122°16'0 0.0
2016-Sep-23 02:33N 38°06' W 122°16'0 0.0
2016-Sep-23 00:22N 38°06' W 122°16'0 0.0
2016-Sep-22 23:33N 38°06' W 122°16'0 0.0
2016-Sep-22 12:33N 38°06' W 122°16'0 0.0
2016-Sep-22 04:33N 38°06' W 122°16'0 0.0
2016-Sep-22 00:31N 38°06' W 122°16'0 0.0
2016-Sep-21 23:33N 38°06' W 122°16'0 0.0
2016-Sep-21 22:33N 38°06' W 122°16'0 0.0
2016-Sep-21 19:12N 38°06' W 122°16'0 0.0
2016-Sep-21 16:33N 38°06' W 122°16'0 0.0
2016-Sep-21 08:31N 38°06' W 122°16'0 0.0
2016-Sep-21 05:33N 38°06' W 122°16'0 0.0
2016-Sep-21 03:33N 38°06' W 122°16'0 0.0
2016-Sep-21 02:33N 38°06' W 122°16'0 0.0
2016-Sep-20 17:30N 38°06' W 122°16'  
Track history (hours):
 
Tides and Currents Weather Stations Pressure Air Temp Water Temp Dewpoint Dewpoint Depression Visibility Wind Speed Wind Dir Waves Ship Positions

Brandy Bar

Owner: Brandy Bar, Tiburon, CA. More information available from US FCC via Universal Licensing System and Coast Guard Vessel Documentation Center.

Last reported at 2016-Sep-30 16:18 UTC. Time now 2016-Sep-30 18:37 UTC.
Position N 38°05' W 122°15'.

Type: Towing. MMSI: 367483310.

Date/timePositionNaut miles runAvg speedWind from/ knotsBaromVisibWave heightAir tempDewpointWater temp
2016-Sep-30 16:18N 38°05' W 122°15'18 6.3
2016-Sep-30 13:26N 38°03' W 121°52'2 0.1
2016-Sep-29 23:12N 38°03' W 121°50'0 0.2
2016-Sep-29 21:33N 38°03' W 121°50'0 0.0
2016-Sep-29 20:33N 38°03' W 121°50'2 1.6
2016-Sep-29 19:33N 38°02' W 121°50'0 0.0
2016-Sep-29 16:33N 38°02' W 121°51'0 0.0
2016-Sep-29 15:33N 38°02' W 121°51'0 0.0
2016-Sep-29 14:33N 38°02' W 121°51'0 0.0
2016-Sep-29 13:30N 38°02' W 121°51'0 0.0
2016-Sep-29 08:33N 38°02' W 121°51'0 0.0
2016-Sep-29 07:33N 38°02' W 121°51'0 0.0
2016-Sep-29 00:33N 38°02' W 121°51'2 0.4
2016-Sep-28 19:16N 38°03' W 121°50'16 5.9
2016-Sep-28 16:32N 38°03' W 122°11'5 4.2
2016-Sep-28 15:23N 38°06' W 122°16'1 0.0
2016-Sep-27 14:23N 38°06' W 122°16'0 0.0
2016-Sep-27 13:16N 38°06' W 122°16'0 0.0
2016-Sep-27 10:30N 38°06' W 122°16'0 0.0
2016-Sep-27 00:33N 38°06' W 122°16'0 0.0
2016-Sep-26 15:33N 38°06' W 122°16'0 0.0
2016-Sep-26 13:18N 38°06' W 122°16'0 0.0
2016-Sep-26 11:33N 38°06' W 122°16'0 0.0
2016-Sep-26 08:33N 38°06' W 122°16'0 0.0
2016-Sep-26 02:33N 38°06' W 122°16'0 0.0
2016-Sep-26 01:33N 38°06' W 122°16'0 0.0
2016-Sep-26 00:33N 38°06' W 122°16'0 0.0
2016-Sep-25 21:30N 38°06' W 122°16'0 0.0
2016-Sep-25 15:33N 38°06' W 122°16'0 0.0
2016-Sep-25 14:33N 38°06' W 122°16'0 0.0
2016-Sep-25 12:33N 38°06' W 122°16'0 0.0
2016-Sep-25 11:33N 38°06' W 122°16'0 0.0
2016-Sep-25 10:33N 38°06' W 122°16'0 0.0
2016-Sep-25 09:33N 38°06' W 122°16'0 0.0
2016-Sep-25 07:31N 38°06' W 122°16'0 0.0
2016-Sep-25 04:33N 38°06' W 122°16'0 0.0
2016-Sep-25 00:33N 38°06' W 122°16'0 0.0
2016-Sep-24 22:33N 38°06' W 122°16'0 0.0
2016-Sep-24 21:33N 38°06' W 122°16'0 0.0
2016-Sep-24 19:33N 38°06' W 122°16'0 0.0
2016-Sep-24 18:33N 38°06' W 122°16'0 0.0
2016-Sep-24 17:31N 38°06' W 122°16'0 0.0
2016-Sep-24 16:33N 38°06' W 122°16'0 0.0
2016-Sep-24 12:33N 38°06' W 122°16'0 0.0
2016-Sep-24 10:33N 38°06' W 122°16'0 0.0
2016-Sep-24 09:33N 38°06' W 122°16'0 0.0
2016-Sep-24 03:33N 38°06' W 122°16'0 0.0
2016-Sep-24 02:33N 38°06' W 122°16'0 0.0
2016-Sep-24 01:33N 38°06' W 122°16'0 0.0
2016-Sep-24 00:33N 38°06' W 122°16'0 0.0
2016-Sep-23 19:17N 38°06' W 122°16'0 0.0
2016-Sep-23 17:17N 38°06' W 122°16'0 0.0
2016-Sep-23 16:32N 38°06' W 122°16'0 0.0
2016-Sep-23 15:33N 38°06' W 122°16'0 0.0
2016-Sep-23 13:32N 38°06' W 122°16'0 0.0
2016-Sep-23 09:31N 38°06' W 122°16'0 0.0
2016-Sep-23 04:32N 38°06' W 122°16'0 0.0
2016-Sep-23 03:33N 38°06' W 122°16'0 0.0
2016-Sep-23 02:33N 38°06' W 122°16'0 0.0
2016-Sep-23 00:22N 38°06' W 122°16'0 0.0
2016-Sep-22 23:33N 38°06' W 122°16'0 0.0
2016-Sep-22 12:33N 38°06' W 122°16'0 0.0
2016-Sep-22 04:33N 38°06' W 122°16'0 0.0
2016-Sep-22 00:31N 38°06' W 122°16'0 0.0
2016-Sep-21 23:33N 38°06' W 122°16'0 0.0
2016-Sep-21 22:33N 38°06' W 122°16'0 0.0
2016-Sep-21 19:12N 38°06' W 122°16'0 0.0
2016-Sep-21 16:33N 38°06' W 122°16'0 0.0
2016-Sep-21 08:31N 38°06' W 122°16'0 0.0
2016-Sep-21 05:33N 38°06' W 122°16'0 0.0
2016-Sep-21 03:33N 38°06' W 122°16'0 0.0
2016-Sep-21 02:33N 38°06' W 122°16'0 0.0
2016-Sep-20 17:30N 38°06' W 122°16'  

Dump ship's entire track history